createdAt,value
2018-04-27T00:00:04.734Z,43
2018-04-27T00:15:04.755Z,44
2018-04-27T00:30:05.422Z,45
2018-04-27T00:45:05.044Z,44
2018-04-27T01:00:04.816Z,44
2018-04-27T01:15:05.338Z,44
2018-04-27T01:30:04.669Z,43
2018-04-27T01:45:05.372Z,43
2018-04-27T02:00:05.185Z,42
2018-04-27T02:15:04.875Z,43
2018-04-27T02:30:04.924Z,49
2018-04-27T02:45:04.695Z,43
2018-04-27T03:00:05.419Z,43
2018-04-27T03:15:04.394Z,43
2018-04-27T03:30:04.744Z,43
2018-04-27T03:45:05.423Z,43
2018-04-27T04:00:05.192Z,45
2018-04-27T04:15:04.669Z,44
2018-04-27T04:30:05.056Z,49
2018-04-27T04:45:05.216Z,49
2018-04-27T05:00:05.009Z,48
2018-04-27T05:15:04.761Z,52
2018-04-27T05:30:05.193Z,52
2018-04-27T05:45:05.593Z,50
2018-04-27T06:00:05.739Z,48
2018-04-27T06:15:04.849Z,47
2018-04-27T06:30:05.040Z,47
2018-04-27T06:45:05.061Z,48
2018-04-27T07:00:05.681Z,47
2018-04-27T07:15:05.077Z,47
2018-04-27T07:30:04.754Z,47
2018-04-27T07:45:05.005Z,48
2018-04-27T08:00:04.814Z,46
2018-04-27T08:15:05.222Z,48
2018-04-27T08:30:04.421Z,49
2018-04-27T08:45:10.270Z,50
2018-04-27T09:00:05.777Z,49
2018-04-27T09:15:05.027Z,49
2018-04-27T09:30:04.549Z,50
2018-04-27T09:45:05.174Z,48
2018-04-27T10:00:04.993Z,49
2018-04-27T10:15:05.312Z,49
2018-04-27T10:30:05.096Z,47
2018-04-27T10:45:05.237Z,50
2018-04-27T11:00:05.423Z,48
2018-04-27T11:15:04.863Z,52
2018-04-27T11:30:04.962Z,49
2018-04-27T11:45:04.739Z,52
2018-04-27T12:00:04.894Z,47
2018-04-27T12:15:04.839Z,52
2018-04-27T12:30:05.362Z,50
2018-04-27T12:45:05.288Z,58
2018-04-27T13:00:05.034Z,56
2018-04-27T13:15:04.624Z,54
2018-04-27T13:30:04.926Z,54
2018-04-27T13:45:04.781Z,51
2018-04-27T14:00:05.443Z,50
2018-04-27T14:15:04.473Z,49
2018-04-27T14:30:05.159Z,52
2018-04-27T14:45:04.711Z,52
2018-04-27T15:00:05.183Z,54
2018-04-27T15:15:04.635Z,52
2018-04-27T15:30:05.342Z,63
2018-04-27T15:45:04.490Z,52
2018-04-27T16:00:05.406Z,60
2018-04-27T16:15:04.956Z,59
2018-04-27T16:30:04.697Z,60
2018-04-27T16:45:04.991Z,56
2018-04-27T17:00:04.997Z,59
2018-04-27T17:15:06.028Z,55
2018-04-27T17:30:05.278Z,59
2018-04-27T17:45:05.268Z,63
2018-04-27T18:00:05.326Z,53
2018-04-27T18:15:05.144Z,51
2018-04-27T18:30:04.745Z,50
2018-04-27T18:45:04.665Z,51
2018-04-27T19:00:04.664Z,51
2018-04-27T19:15:04.624Z,49
2018-04-27T19:30:04.809Z,55
2018-04-27T19:45:05.294Z,51
2018-04-27T20:00:05.341Z,49
2018-04-27T20:15:05.302Z,52
2018-04-27T20:30:04.535Z,54
2018-04-27T20:45:04.508Z,52
2018-04-27T21:00:04.947Z,50
2018-04-27T21:15:04.688Z,50
2018-04-27T21:30:05.184Z,50
2018-04-27T21:45:05.241Z,48
2018-04-27T22:00:05.200Z,48
2018-04-27T22:15:05.128Z,49
2018-04-27T22:30:04.791Z,46
2018-04-27T22:45:04.795Z,47
2018-04-27T23:00:05.235Z,47
2018-04-27T23:15:04.753Z,46
2018-04-27T23:30:04.958Z,46
2018-04-27T23:45:04.914Z,44
